Wauregan, CT (06387)

9:53 PM EDT on September 15, 2014 (GMT -0400)
Allen Hill Road | Change Station
CLOSE
Current Station
Personal Weather Station
Location: Brooklyn, CT
Elevation: 341 ft
Nearby Weather Stations

Elev 341 ft 41.78 °N, 71.92 °W | Updated 1 second ago

Clear
Clear
48.6 °F
Feels Like 49 °F
N
0.0
Wind Variable Wind from NNW
Gusts 1.0 mph

Today
High -- | Low -- °F
--% Chance of Precip.
Yesterday
High -- | Low -- °F
Precip. -- in
6:27 AM 6:57 PM
Waning Gibbous, 50% visible
Pressure 30.14 in
Visibility 10.0 miles
Clouds Clear
Windchill 49 °F
Dew Point 47 °F
Humidity 93%
Rainfall 0.00 in
Snow Depth Not available.
UV 0 out of 12
Pollen 3.20 out of 12
Ozone Good
Flu Activity Not available.
METAR KIJD 160052Z AUTO 00000KT 10SM CLR 12/09 A3014 RMK AO2 SLP206 T01220094

More Conditions Fewer Conditions

Pressure 30.14 in
Visibility 10.0 miles
Clouds Clear
Windchill 49 °F
Dew Point 47 °F
Humidity 93%
Rainfall 0.00 in
Snow Depth Not available.
UV 0 out of 12
Pollen 3.20 out of 12
Ozone Good
Flu Activity Not available.
METAR KIJD 160052Z AUTO 00000KT 10SM CLR 12/09 A3014 RMK AO2 SLP206 T01220094

More Conditions Fewer Conditions

10-Day Weather Forecast

Almanac

Astronomy

Sep. 15, 2014 Rise Set
Actual Time 6:27 AM EDT 6:57 PM EDT
Civil Twilight 5:59 AM EDT 7:24 PM EDT
Nautical Twilight 5:26 AM EDT 7:57 PM EDT
Astronomical Twilight 4:53 AM EDT 8:31 PM EDT
Moon 11:32 PM EDT (9/15) 1:30 PM EDT (9/15)
Length of Visible Light 13h 25m
Length of Day
12h 29m
Tomorrow will be 2m 46s shorter.
Waning Gibbous, 50% of the Moon is Illuminated
Today
Waning Gibbous
Sep 15
Last Quarter
Sep 24
New
Oct 1
First Quarter
Oct 8
Full

Today's Extremes

State Highs State Lows

Community

WunderPhotos

Upload Photos

1,753,643 photos uploaded!

WunderBlogs® & News

Nearby

Air Quality

  Air Quality AQ Index Pollutant
Yesterday Good
OZONE
Current Good
OZONE
Tuesday Good
OZONE
Tuesday Good
PM2.5

Snow Depth

Station Depth Elevation
No new snow has been reported.

Earthquake Activity

City Distance Mag. Time & Date
No recent earthquake activity has been reported nearby.
Minimum magnitude displayed is 2.5.

Coastal Water Temperatures

Place Temperature
New London, CT 68.0 °F
Newport, RI 68.0 °F
Quonset Point, RI 69.1 °F
Conimicut Light, RI 69.1 °F
Providence, RI 70.0 °F

Nearby Weather Stations